createdAt,value
2024-02-29T00:00:52.102Z,-0.15
2024-02-29T00:03:18.578Z,-0.16
2024-02-29T00:05:45.884Z,-0.15
2024-02-29T00:08:12.622Z,-0.12
2024-02-29T00:10:39.210Z,-0.15
2024-02-29T00:13:07.272Z,-0.22
2024-02-29T00:15:34.138Z,-0.29
2024-02-29T00:18:00.973Z,-0.61
2024-02-29T00:20:27.498Z,-0.82
2024-02-29T00:22:54.015Z,-1.01
2024-02-29T00:25:20.477Z,-0.99
2024-02-29T00:27:47.146Z,-0.80
2024-02-29T00:30:14.544Z,-0.72
2024-02-29T00:32:41.240Z,-0.80
2024-02-29T00:35:10.258Z,-0.68
2024-02-29T00:37:37.049Z,-0.68
2024-02-29T00:40:04.027Z,-0.64
2024-02-29T00:42:30.831Z,-0.47
2024-02-29T00:44:57.436Z,-0.47
2024-02-29T00:47:23.923Z,-0.70
2024-02-29T00:49:50.430Z,-0.75
2024-02-29T00:52:16.920Z,-1.08
2024-02-29T00:54:43.520Z,-1.19
2024-02-29T00:57:09.993Z,-1.23
2024-02-29T00:59:37.112Z,-1.17
2024-02-29T01:02:04.695Z,-1.23
2024-02-29T01:04:31.209Z,-1.31
2024-02-29T01:06:58.384Z,-1.07
2024-02-29T01:09:28.902Z,-1.02
2024-02-29T01:11:55.833Z,-1.02
2024-02-29T01:14:22.458Z,-1.00
2024-02-29T01:16:49.780Z,-0.98
2024-02-29T01:19:16.426Z,-1.10
2024-02-29T01:21:43.111Z,-1.04
2024-02-29T01:24:09.638Z,-1.04
2024-02-29T01:26:36.152Z,-1.06
2024-02-29T01:29:02.659Z,-1.07
2024-02-29T01:31:29.800Z,-1.07
2024-02-29T01:33:56.731Z,-1.05
2024-02-29T01:36:23.255Z,-0.83
2024-02-29T01:38:49.842Z,-0.80
2024-02-29T01:41:16.643Z,-0.58
2024-02-29T01:43:53.943Z,-0.51
2024-02-29T01:46:21.458Z,-0.52
2024-02-29T01:48:51.673Z,-0.48
2024-02-29T01:51:19.988Z,-0.42
2024-02-29T01:53:46.724Z,-0.36
2024-02-29T01:56:16.564Z,-0.36
2024-02-29T01:58:43.429Z,-0.35
2024-02-29T02:01:10.365Z,-0.40
2024-02-29T02:03:38.340Z,-0.47
2024-02-29T02:06:05.358Z,-0.48
2024-02-29T02:08:37.323Z,-0.49
2024-02-29T02:11:04.036Z,-0.51
2024-02-29T02:13:30.832Z,-0.43
2024-02-29T02:15:57.267Z,-0.42
2024-02-29T02:18:23.803Z,-0.38
2024-02-29T02:20:50.992Z,-0.25
2024-02-29T02:23:17.872Z,-0.18
2024-02-29T02:25:44.526Z,-0.24
2024-02-29T02:28:13.355Z,-0.41
2024-02-29T02:30:40.498Z,-0.62
2024-02-29T02:33:07.158Z,-0.75
2024-02-29T02:35:35.114Z,-0.89
2024-02-29T02:38:05.842Z,-0.95
2024-02-29T02:40:32.745Z,-0.86
2024-02-29T02:42:59.495Z,-0.84
2024-02-29T02:45:26.174Z,-0.77
2024-02-29T02:47:53.055Z,-0.55
2024-02-29T02:50:19.910Z,-0.64
2024-02-29T02:52:46.443Z,-0.77
2024-02-29T02:55:13.383Z,-0.81
2024-02-29T02:57:39.965Z,-0.72
2024-02-29T03:00:08.016Z,-0.79
2024-02-29T03:02:34.478Z,-0.74
2024-02-29T03:05:01.069Z,-0.77
2024-02-29T03:07:27.589Z,-0.41
2024-02-29T03:09:54.345Z,-0.34
2024-02-29T03:12:20.912Z,-0.32
2024-02-29T03:14:47.611Z,-0.36
2024-02-29T03:17:14.274Z,-0.34
2024-02-29T03:19:40.959Z,-0.39
2024-02-29T03:22:07.580Z,-0.35
2024-02-29T03:24:34.283Z,-0.36
2024-02-29T03:27:00.760Z,-0.35
2024-02-29T03:29:27.448Z,-0.31
2024-02-29T03:31:54.196Z,-0.25
2024-02-29T03:34:21.034Z,-0.15
2024-02-29T03:36:47.672Z,-0.07
2024-02-29T03:39:14.182Z,-0.14
2024-02-29T03:41:40.712Z,-0.29
2024-02-29T03:44:07.356Z,-0.45
2024-02-29T03:46:33.876Z,-0.51
2024-02-29T03:49:00.647Z,-0.61
2024-02-29T03:51:27.150Z,-0.56
2024-02-29T03:53:53.831Z,-0.57
2024-02-29T03:56:21.523Z,-0.57
2024-02-29T03:58:47.944Z,-0.65
2024-02-29T04:01:14.943Z,-0.59
2024-02-29T04:03:42.289Z,-0.65
2024-02-29T04:06:08.945Z,-0.67
2024-02-29T04:08:37.460Z,-0.63
2024-02-29T04:11:04.617Z,-0.55
2024-02-29T04:13:31.688Z,-0.64
2024-02-29T04:15:58.497Z,-0.57
2024-02-29T04:18:25.159Z,-0.55
2024-02-29T04:21:12.168Z,-0.51
2024-02-29T04:23:38.812Z,-0.52
2024-02-29T04:26:37.837Z,-0.53
2024-02-29T04:29:04.359Z,-0.52
2024-02-29T04:31:30.905Z,-0.47
2024-02-29T04:33:57.453Z,-0.45
2024-02-29T04:36:23.965Z,-0.44
2024-02-29T04:38:51.193Z,-0.43
2024-02-29T04:41:18.030Z,-0.43
2024-02-29T04:43:44.478Z,-0.39
2024-02-29T04:46:11.040Z,-0.31
2024-02-29T04:48:37.716Z,-0.25
2024-02-29T04:51:06.179Z,-0.31
2024-02-29T04:53:32.820Z,-0.45
2024-02-29T04:55:59.354Z,-0.59
2024-02-29T04:58:25.781Z,-0.65
2024-02-29T05:00:53.282Z,-0.62
2024-02-29T05:03:20.153Z,-0.57
2024-02-29T05:05:46.848Z,-0.52
2024-02-29T05:08:14.076Z,-0.82
2024-02-29T05:10:40.925Z,-0.76
2024-02-29T05:13:07.697Z,-0.53
2024-02-29T05:15:34.589Z,-0.66
2024-02-29T05:18:01.666Z,-0.86
2024-02-29T05:20:29.856Z,-0.86
2024-02-29T05:22:56.372Z,-0.64
2024-02-29T05:25:23.019Z,-0.39
2024-02-29T05:27:49.567Z,-0.27
2024-02-29T05:30:16.385Z,-0.25
2024-02-29T05:32:43.257Z,-0.23
2024-02-29T05:35:09.964Z,-0.23
2024-02-29T05:37:37.426Z,-0.21
2024-02-29T05:40:06.998Z,-0.21
2024-02-29T05:42:34.115Z,-0.17
2024-02-29T05:45:01.101Z,-0.15
2024-02-29T05:47:27.874Z,-0.17
2024-02-29T05:49:54.610Z,-0.14
2024-02-29T05:52:21.098Z,-0.10
2024-02-29T05:54:47.757Z,-0.07
2024-02-29T05:57:14.259Z,-0.08
2024-02-29T05:59:40.696Z,-0.07
2024-02-29T06:02:10.813Z,-0.09
2024-02-29T06:04:37.746Z,-0.12
2024-02-29T06:07:05.442Z,-0.11
2024-02-29T06:09:31.910Z,-0.10
2024-02-29T06:11:58.372Z,-0.19
2024-02-29T06:14:25.807Z,-0.18
2024-02-29T06:16:52.424Z,-0.38
2024-02-29T06:19:19.014Z,-0.42
2024-02-29T06:21:45.723Z,-0.51
2024-02-29T06:24:12.424Z,-0.71
2024-02-29T06:26:39.253Z,-0.86
2024-02-29T06:29:05.995Z,-0.65
2024-02-29T06:31:32.554Z,-0.59
2024-02-29T06:34:01.532Z,-0.60
2024-02-29T06:36:28.296Z,-0.56
2024-02-29T06:38:55.068Z,-0.59
2024-02-29T06:41:21.662Z,-0.66
2024-02-29T06:43:48.335Z,-0.53
2024-02-29T06:46:14.891Z,-0.47
2024-02-29T06:48:41.586Z,-0.36
2024-02-29T06:51:08.053Z,-0.30
2024-02-29T06:53:34.602Z,-0.22
2024-02-29T06:56:01.227Z,-0.22
2024-02-29T06:58:27.997Z,-0.29
2024-02-29T07:00:54.948Z,-0.36
2024-02-29T07:03:23.597Z,-0.30
2024-02-29T07:05:51.092Z,-0.35
2024-02-29T07:08:17.575Z,-0.30
2024-02-29T07:10:44.143Z,-0.27
2024-02-29T07:13:11.295Z,-0.30
2024-02-29T07:15:38.202Z,-0.36
2024-02-29T07:18:04.993Z,-0.28
2024-02-29T07:20:31.707Z,-0.25
2024-02-29T07:23:00.380Z,-0.20
2024-02-29T07:25:28.822Z,-0.17
2024-02-29T07:27:56.323Z,-0.14
2024-02-29T07:30:23.000Z,-0.08
2024-02-29T07:32:49.760Z,-0.10
2024-02-29T07:35:18.796Z,-0.10
2024-02-29T07:37:45.860Z,-0.06
2024-02-29T07:40:12.708Z,0.00
2024-02-29T07:42:42.944Z,0.02
2024-02-29T07:45:10.170Z,0.14
2024-02-29T07:47:37.334Z,0.10
2024-02-29T07:50:07.227Z,0.15
2024-02-29T07:52:33.952Z,0.13
2024-02-29T07:55:00.882Z,0.07
2024-02-29T07:57:27.557Z,0.08
2024-02-29T07:59:53.996Z,0.16
2024-02-29T08:02:23.102Z,0.20
2024-02-29T08:04:51.308Z,0.15
2024-02-29T08:07:17.914Z,0.24
2024-02-29T08:09:44.466Z,0.25
2024-02-29T08:12:10.947Z,0.18
2024-02-29T08:14:37.432Z,0.23
2024-02-29T08:17:04.017Z,0.20
2024-02-29T08:19:30.507Z,0.17
2024-02-29T08:21:57.784Z,0.12
2024-02-29T08:24:24.211Z,0.15
2024-02-29T08:26:51.057Z,0.19
2024-02-29T08:29:17.926Z,0.23
2024-02-29T08:31:45.322Z,0.33
2024-02-29T08:34:12.001Z,0.32
2024-02-29T08:36:38.720Z,0.34
2024-02-29T08:39:05.335Z,0.36
2024-02-29T08:41:31.805Z,0.35
2024-02-29T08:43:58.298Z,0.38
2024-02-29T08:46:24.849Z,0.36
2024-02-29T08:48:51.458Z,0.29
2024-02-29T08:51:17.956Z,0.32
2024-02-29T08:53:44.411Z,0.36
2024-02-29T08:56:10.930Z,0.40
2024-02-29T08:58:37.684Z,0.44
2024-02-29T09:01:05.253Z,0.49
2024-02-29T09:03:31.868Z,0.60
2024-02-29T09:05:58.294Z,0.54
2024-02-29T09:08:25.014Z,0.58
2024-02-29T09:10:51.825Z,0.68
2024-02-29T09:13:29.812Z,0.76
2024-02-29T09:16:01.711Z,0.76
2024-02-29T09:18:30.172Z,0.79
2024-02-29T09:20:56.602Z,0.87
2024-02-29T09:23:23.041Z,0.83
2024-02-29T09:25:50.949Z,0.86
2024-02-29T09:28:17.399Z,0.93
2024-02-29T09:30:44.334Z,0.87
2024-02-29T09:33:10.961Z,0.89
2024-02-29T09:35:37.649Z,0.95
2024-02-29T09:38:05.809Z,0.98
2024-02-29T09:40:41.891Z,1.07
2024-02-29T09:43:15.722Z,1.13
2024-02-29T09:45:43.642Z,1.25
2024-02-29T09:48:12.189Z,1.27
2024-02-29T09:50:39.016Z,1.39
2024-02-29T09:53:06.780Z,1.44
2024-02-29T09:55:35.217Z,1.56
2024-02-29T09:58:03.699Z,1.62
2024-02-29T10:00:31.722Z,1.66
2024-02-29T10:02:58.805Z,1.75
2024-02-29T10:05:26.047Z,1.89
2024-02-29T10:07:53.549Z,1.83
2024-02-29T10:10:20.076Z,1.90
2024-02-29T10:12:54.751Z,2.03
2024-02-29T10:15:26.258Z,2.07
2024-02-29T10:17:54.404Z,2.14
2024-02-29T10:20:24.067Z,2.03
2024-02-29T10:22:50.936Z,2.03
2024-02-29T10:25:17.729Z,2.17
2024-02-29T10:27:44.663Z,2.19
2024-02-29T10:30:16.657Z,2.15
2024-02-29T10:32:45.501Z,2.19
2024-02-29T10:35:39.842Z,2.37
2024-02-29T10:38:09.929Z,2.55
2024-02-29T10:40:36.571Z,2.72
2024-02-29T10:43:04.047Z,2.69
2024-02-29T10:45:35.635Z,2.59
2024-02-29T10:48:16.014Z,2.75
2024-02-29T10:50:54.394Z,2.98
2024-02-29T10:53:42.182Z,2.96
2024-02-29T10:56:20.792Z,2.93
2024-02-29T10:58:50.732Z,2.91
2024-02-29T11:01:18.056Z,2.90
2024-02-29T11:03:45.513Z,3.01
2024-02-29T11:06:13.970Z,3.18
2024-02-29T11:08:41.639Z,3.30
2024-02-29T11:11:14.121Z,3.26
2024-02-29T11:13:41.053Z,3.27
2024-02-29T11:16:12.281Z,3.28
2024-02-29T11:18:39.302Z,3.38
2024-02-29T11:21:06.685Z,3.40
2024-02-29T11:23:40.628Z,3.23
2024-02-29T11:26:14.500Z,3.27
2024-02-29T11:28:42.402Z,3.24
2024-02-29T11:31:12.785Z,3.28
2024-02-29T11:33:39.529Z,3.32
2024-02-29T11:36:06.406Z,3.38
2024-02-29T11:38:40.150Z,3.49
2024-02-29T11:41:20.469Z,3.44
2024-02-29T11:43:47.946Z,3.63
2024-02-29T11:46:15.227Z,3.76
2024-02-29T11:48:42.273Z,3.88
2024-02-29T11:51:10.474Z,3.89
2024-02-29T11:53:39.768Z,3.88
2024-02-29T11:56:14.613Z,3.99
2024-02-29T11:58:43.639Z,3.89
2024-02-29T12:01:13.716Z,4.05
2024-02-29T12:03:40.394Z,4.11
2024-02-29T12:06:07.306Z,4.15
2024-02-29T12:08:33.852Z,4.20
2024-02-29T12:11:01.452Z,4.14
2024-02-29T12:13:29.167Z,4.10
2024-02-29T12:15:56.615Z,4.21
2024-02-29T12:18:24.043Z,4.14
2024-02-29T12:20:51.360Z,4.22
2024-02-29T12:23:20.176Z,4.28
2024-02-29T12:25:47.387Z,4.19
2024-02-29T12:28:14.756Z,4.34
2024-02-29T12:30:41.817Z,4.54
2024-02-29T12:33:09.315Z,4.57
2024-02-29T12:35:35.855Z,4.52
2024-02-29T12:38:05.449Z,4.50
2024-02-29T12:40:34.169Z,4.44
2024-02-29T12:43:01.283Z,4.34
2024-02-29T12:45:28.198Z,4.34
2024-02-29T12:47:55.717Z,4.26
2024-02-29T12:50:23.005Z,4.25
2024-02-29T12:52:55.082Z,4.28
2024-02-29T12:55:24.709Z,4.23
2024-02-29T12:57:51.489Z,4.29
2024-02-29T13:00:28.345Z,4.26
2024-02-29T13:02:55.063Z,4.39
2024-02-29T13:05:22.572Z,4.56
2024-02-29T13:07:49.797Z,4.66
2024-02-29T13:10:16.495Z,4.56
2024-02-29T13:12:44.458Z,4.65
2024-02-29T13:15:14.082Z,4.52
2024-02-29T13:17:41.066Z,4.51
2024-02-29T13:20:08.150Z,4.64
2024-02-29T13:22:35.784Z,4.67
2024-02-29T13:25:04.111Z,4.70
2024-02-29T13:27:31.045Z,4.88
2024-02-29T13:29:57.677Z,4.98
2024-02-29T13:32:24.647Z,4.99
2024-02-29T13:34:51.863Z,5.04
2024-02-29T13:37:20.533Z,5.05
2024-02-29T13:39:47.466Z,5.10
2024-02-29T13:42:14.005Z,5.17
2024-02-29T13:44:40.756Z,5.22
2024-02-29T13:47:07.212Z,5.04
2024-02-29T13:49:34.701Z,4.99
2024-02-29T13:52:01.236Z,4.86
2024-02-29T13:54:27.792Z,4.73
2024-02-29T13:56:54.413Z,4.77
2024-02-29T13:59:21.066Z,4.90
2024-02-29T14:01:48.485Z,4.91
2024-02-29T14:04:16.829Z,5.06
2024-02-29T14:06:44.543Z,5.20
2024-02-29T14:09:12.389Z,5.07
2024-02-29T14:11:39.996Z,5.17
2024-02-29T14:14:07.199Z,5.21
2024-02-29T14:16:34.157Z,5.37
2024-02-29T14:19:00.769Z,5.51
2024-02-29T14:21:27.354Z,5.53
2024-02-29T14:23:53.869Z,5.47
2024-02-29T14:26:20.786Z,5.35
2024-02-29T14:28:47.338Z,5.25
2024-02-29T14:31:14.756Z,5.20
2024-02-29T14:33:42.196Z,5.25
2024-02-29T14:36:11.321Z,5.28
2024-02-29T14:38:38.542Z,5.30
2024-02-29T14:41:05.251Z,5.39
2024-02-29T14:43:31.784Z,5.56
2024-02-29T14:45:58.311Z,5.64
2024-02-29T14:48:25.690Z,5.76
2024-02-29T14:50:52.410Z,5.91
2024-02-29T14:53:19.044Z,5.92
2024-02-29T14:55:45.501Z,5.93
2024-02-29T14:58:12.042Z,5.86
2024-02-29T15:00:38.537Z,5.74
2024-02-29T15:03:05.424Z,5.73
2024-02-29T15:05:31.849Z,5.74
2024-02-29T15:07:59.061Z,5.76
2024-02-29T15:10:25.606Z,5.80
2024-02-29T15:12:52.302Z,5.87
2024-02-29T15:15:18.909Z,5.89
2024-02-29T15:17:45.841Z,5.92
2024-02-29T15:20:12.500Z,5.89
2024-02-29T15:22:39.014Z,5.88
2024-02-29T15:25:15.372Z,5.83
2024-02-29T15:27:47.394Z,5.88
2024-02-29T15:30:14.342Z,5.87
2024-02-29T15:32:41.008Z,5.86
2024-02-29T15:35:08.997Z,5.84
2024-02-29T15:37:35.877Z,5.86
2024-02-29T15:40:03.380Z,5.84
2024-02-29T15:42:29.818Z,5.82
2024-02-29T15:44:56.670Z,5.79
2024-02-29T15:47:23.152Z,5.68
2024-02-29T15:49:49.609Z,5.59
2024-02-29T15:52:17.960Z,5.57
2024-02-29T15:54:44.646Z,5.54
2024-02-29T15:57:12.568Z,5.51
2024-02-29T15:59:40.271Z,5.50
2024-02-29T16:02:07.779Z,5.47
2024-02-29T16:04:35.942Z,5.45
2024-02-29T16:07:02.449Z,5.30
2024-02-29T16:09:30.778Z,5.30
2024-02-29T16:11:57.276Z,5.09
2024-02-29T16:14:24.032Z,5.19
2024-02-29T16:16:50.584Z,5.31
2024-02-29T16:19:17.195Z,5.34
2024-02-29T16:21:43.768Z,5.34
2024-02-29T16:24:10.529Z,5.31
2024-02-29T16:26:37.429Z,5.24
2024-02-29T16:29:04.146Z,5.11
2024-02-29T16:31:31.054Z,5.08
2024-02-29T16:33:57.864Z,5.11
2024-02-29T16:36:24.452Z,5.10
2024-02-29T16:38:50.976Z,5.08
2024-02-29T16:41:17.922Z,5.06
2024-02-29T16:43:44.715Z,5.06
2024-02-29T16:46:12.138Z,5.04
2024-02-29T16:48:38.713Z,4.93
2024-02-29T16:51:05.459Z,4.84
2024-02-29T16:53:32.499Z,4.71
2024-02-29T16:55:59.875Z,4.72
2024-02-29T16:58:26.941Z,4.84
2024-02-29T17:00:55.494Z,4.89
2024-02-29T17:03:22.056Z,4.90
2024-02-29T17:05:48.755Z,4.92
2024-02-29T17:08:15.244Z,4.86
2024-02-29T17:10:42.026Z,4.81
2024-02-29T17:13:08.632Z,4.62
2024-02-29T17:15:38.316Z,4.56
2024-02-29T17:18:05.241Z,4.60
2024-02-29T17:20:31.904Z,4.72
2024-02-29T17:22:58.545Z,4.80
2024-02-29T17:25:25.096Z,4.83
2024-02-29T17:27:53.956Z,4.86
2024-02-29T17:30:21.916Z,4.84
2024-02-29T17:32:48.563Z,4.80
2024-02-29T17:35:17.095Z,4.69
2024-02-29T17:37:44.811Z,4.63
2024-02-29T17:40:11.812Z,4.64
2024-02-29T17:42:38.422Z,4.69
2024-02-29T17:45:05.874Z,4.77
2024-02-29T17:47:32.392Z,4.79
2024-02-29T17:49:58.935Z,4.79
2024-02-29T17:52:26.446Z,4.77
2024-02-29T17:54:55.531Z,4.74
2024-02-29T17:57:22.451Z,4.72
2024-02-29T17:59:49.156Z,4.70
2024-02-29T18:02:15.698Z,4.66
2024-02-29T18:04:42.390Z,4.60
2024-02-29T18:07:09.022Z,4.60
2024-02-29T18:09:35.984Z,4.63
2024-02-29T18:12:02.557Z,4.65
2024-02-29T18:14:30.058Z,4.67
2024-02-29T18:16:57.507Z,4.66
2024-02-29T18:19:24.173Z,4.71
2024-02-29T18:21:50.773Z,4.73
2024-02-29T18:24:17.380Z,4.73
2024-02-29T18:26:44.890Z,4.71
2024-02-29T18:29:11.431Z,4.73
2024-02-29T18:31:37.955Z,4.73
2024-02-29T18:34:04.514Z,4.72
2024-02-29T18:36:31.027Z,4.71
2024-02-29T18:38:57.721Z,4.67
2024-02-29T18:41:26.030Z,4.65
2024-02-29T18:43:52.989Z,4.63
2024-02-29T18:46:19.687Z,4.60
2024-02-29T18:48:46.394Z,4.56
2024-02-29T18:51:13.185Z,4.52
2024-02-29T18:53:39.707Z,4.45
2024-02-29T18:56:06.341Z,4.47
2024-02-29T18:58:32.865Z,4.54
2024-02-29T19:00:59.584Z,4.56
2024-02-29T19:03:26.126Z,4.55
2024-02-29T19:05:53.098Z,4.54
2024-02-29T19:08:21.430Z,4.53
2024-02-29T19:10:48.053Z,4.52
2024-02-29T19:13:14.850Z,4.51
2024-02-29T19:15:41.489Z,4.50
2024-02-29T19:18:07.936Z,4.54
2024-02-29T19:20:34.553Z,4.54
2024-02-29T19:23:01.097Z,4.54
2024-02-29T19:25:27.917Z,4.51
2024-02-29T19:27:54.487Z,4.50
2024-02-29T19:30:23.390Z,4.52
2024-02-29T19:32:50.299Z,4.56
2024-02-29T19:35:17.252Z,4.52
2024-02-29T19:37:44.060Z,4.49
2024-02-29T19:40:10.817Z,4.44
2024-02-29T19:42:40.299Z,4.47
2024-02-29T19:45:09.127Z,4.54
2024-02-29T19:47:37.558Z,4.58
2024-02-29T19:50:04.442Z,4.61
2024-02-29T19:52:33.468Z,4.59
2024-02-29T19:55:02.304Z,4.54
2024-02-29T19:57:29.107Z,4.54
2024-02-29T19:59:55.546Z,4.56
2024-02-29T20:02:22.067Z,4.57
2024-02-29T20:04:49.513Z,4.64
2024-02-29T20:07:16.525Z,4.69
2024-02-29T20:09:46.726Z,4.71
2024-02-29T20:12:13.279Z,4.73
2024-02-29T20:14:41.568Z,4.66
2024-02-29T20:17:08.724Z,4.64
2024-02-29T20:19:37.419Z,4.70
2024-02-29T20:22:04.969Z,4.75
2024-02-29T20:24:31.736Z,4.79
2024-02-29T20:26:58.243Z,4.78
2024-02-29T20:29:25.066Z,4.76
2024-02-29T20:31:53.353Z,4.73
2024-02-29T20:34:19.888Z,4.70
2024-02-29T20:36:47.567Z,4.71
2024-02-29T20:39:15.408Z,4.73
2024-02-29T20:41:42.207Z,4.78
2024-02-29T20:44:09.368Z,4.72
2024-02-29T20:46:36.123Z,4.60
2024-02-29T20:49:02.652Z,4.53
2024-02-29T20:51:29.138Z,4.56
2024-02-29T20:53:55.656Z,4.56
2024-02-29T20:56:22.706Z,4.59
2024-02-29T20:58:49.246Z,4.49
2024-02-29T21:01:16.147Z,4.41
2024-02-29T21:03:42.719Z,4.31
2024-02-29T21:06:09.220Z,4.32
2024-02-29T21:08:38.507Z,4.26
2024-02-29T21:11:05.056Z,4.22
2024-02-29T21:13:34.763Z,4.19
2024-02-29T21:16:01.507Z,4.29
2024-02-29T21:18:28.085Z,4.36
2024-02-29T21:20:54.527Z,4.34
2024-02-29T21:23:20.995Z,4.28
2024-02-29T21:25:47.566Z,4.16
2024-02-29T21:28:14.656Z,4.06
2024-02-29T21:30:41.652Z,3.94
2024-02-29T21:33:08.242Z,3.90
2024-02-29T21:35:34.775Z,3.87
2024-02-29T21:38:01.260Z,3.93
2024-02-29T21:40:28.378Z,3.98
2024-02-29T21:42:55.037Z,4.01
2024-02-29T21:45:21.713Z,3.89
2024-02-29T21:47:48.360Z,3.83
2024-02-29T21:50:14.808Z,3.86
2024-02-29T21:52:41.573Z,3.92
2024-02-29T21:55:08.784Z,4.01
2024-02-29T21:57:35.376Z,4.04
2024-02-29T22:00:02.139Z,4.09
2024-02-29T22:02:28.613Z,4.14
2024-02-29T22:04:55.572Z,4.18
2024-02-29T22:07:22.376Z,4.15
2024-02-29T22:09:49.891Z,4.15
2024-02-29T22:12:16.336Z,4.13
2024-02-29T22:14:42.752Z,4.13
2024-02-29T22:17:09.465Z,4.08
2024-02-29T22:19:38.238Z,4.06
2024-02-29T22:22:04.856Z,4.06
2024-02-29T22:24:31.343Z,4.06
2024-02-29T22:26:58.697Z,4.07
2024-02-29T22:29:25.160Z,4.07
2024-02-29T22:31:51.586Z,4.08
2024-02-29T22:34:18.152Z,3.98
2024-02-29T22:36:44.760Z,3.84
2024-02-29T22:39:11.994Z,3.82
2024-02-29T22:41:52.441Z,3.77
2024-02-29T22:44:23.840Z,3.84
2024-02-29T22:46:50.394Z,3.81
2024-02-29T22:49:16.848Z,3.74
2024-02-29T22:51:43.440Z,3.65
2024-02-29T22:54:09.870Z,3.53
2024-02-29T22:56:36.723Z,3.36
2024-02-29T22:59:03.195Z,3.33
2024-02-29T23:01:29.873Z,3.24
2024-02-29T23:03:56.801Z,3.14
2024-02-29T23:06:23.679Z,3.14
2024-02-29T23:08:50.106Z,3.07
2024-02-29T23:11:17.319Z,2.97
2024-02-29T23:13:43.967Z,2.97
2024-02-29T23:16:10.489Z,2.93
2024-02-29T23:18:36.936Z,2.93
2024-02-29T23:21:22.877Z,3.10
2024-02-29T23:23:49.400Z,3.16
2024-02-29T23:26:15.816Z,3.25
2024-02-29T23:28:42.212Z,3.22
2024-02-29T23:31:08.781Z,3.18
2024-02-29T23:33:35.786Z,3.19
2024-02-29T23:36:02.333Z,3.16
2024-02-29T23:38:28.748Z,3.21
2024-02-29T23:40:55.189Z,3.25
2024-02-29T23:43:21.798Z,3.36
2024-02-29T23:45:48.237Z,3.51
2024-02-29T23:48:14.830Z,3.62
2024-02-29T23:50:41.316Z,3.71
2024-02-29T23:53:07.745Z,3.74
2024-02-29T23:55:34.490Z,3.71
2024-02-29T23:58:01.049Z,3.62
